Time;durP1;ratioP1;P1;durP2;ratioP2;P2;SDS_P1;SDS_P2;PMS_P1;PMS_P2;Temp;Humidity;BMP_temperature;BMP_pressure;BME280_temperature;BME280_humidity;BME280_pressure;Samples;Min_cycle;Max_cycle;Signal;HPM_P1;HPM_P2
2023/04/21 00:00:06;;;;;;;3.53;2.83;;;18.80;78.10;;;;;;5055341;28;20052;-30
2023/04/21 00:02:33;;;;;;;4.35;3.13;;;18.70;61.30;;;;;;5054851;28;20183;-31
2023/04/21 00:05:00;;;;;;;4.70;3.40;;;18.90;77.80;;;;;;5054747;28;20107;-30
2023/04/21 00:07:29;;;;;;;4.72;3.17;;;18.50;77.50;;;;;;5056217;28;20059;-30
2023/04/21 00:09:56;;;;;;;3.78;2.97;;;18.30;77.70;;;;;;5055016;28;20049;-31
2023/04/21 00:12:23;;;;;;;3.63;2.80;;;;;;;;;;5054918;28;20045;-30
2023/04/21 00:14:51;;;;;;;3.33;2.75;;;;;;;;;;5057101;28;20052;-30
2023/04/21 00:17:18;;;;;;;3.75;3.10;;;17.70;77.00;;;;;;5074970;28;20075;-30
2023/04/21 00:19:46;;;;;;;4.32;3.00;;;;;;;;;;5075225;28;20055;-30
2023/04/21 00:22:13;;;;;;;3.70;3.00;;;;;;;;;;5071460;28;20060;-31
2023/04/21 00:24:40;;;;;;;3.80;3.08;;;18.70;77.90;;;;;;5074680;28;20048;-30
2023/04/21 00:27:07;;;;;;;4.00;3.13;;;;;;;;;;5074768;28;20048;-32
2023/04/21 00:29:34;;;;;;;3.85;2.85;;;;;;;;;;5074565;28;20131;-30
2023/04/21 00:32:07;;;;;;;3.42;2.97;;;18.60;51.10;;;;;;5074859;28;20084;-30
2023/04/21 00:34:34;;;;;;;3.00;2.70;;;;;;;;;;5074109;28;20048;-34
2023/04/21 00:37:01;;;;;;;3.67;3.10;;;;;;;;;;5073729;28;20049;-30
2023/04/21 00:39:28;;;;;;;4.07;2.95;;;18.90;67.70;;;;;;5074495;28;20062;-31
2023/04/21 00:41:56;;;;;;;3.45;2.90;;;18.10;77.10;;;;;;5073467;28;20048;-29
2023/04/21 00:44:22;;;;;;;3.35;3.00;;;18.10;69.00;;;;;;5074079;28;20769;-31
2023/04/21 00:46:49;;;;;;;3.70;2.85;;;18.40;63.70;;;;;;5074231;28;20051;-30
2023/04/21 00:49:17;;;;;;;4.38;3.20;;;18.40;50.90;;;;;;5074622;28;20052;-35
2023/04/21 00:51:44;;;;;;;4.50;2.92;;;;;;;;;;5073638;28;20059;-34
2023/04/21 00:54:11;;;;;;;4.80;3.33;;;;;;;;;;5074275;28;20048;-30
2023/04/21 00:56:38;;;;;;;3.83;3.10;;;;;;;;;;5074105;28;20051;-34
2023/04/21 00:59:05;;;;;;;5.35;2.90;;;;;;;;;;5073334;28;20050;-32
2023/04/21 01:01:33;;;;;;;4.40;3.00;;;;;;;;;;5074018;28;20048;-31
2023/04/21 01:04:00;;;;;;;4.22;3.60;;;17.00;76.60;;;;;;5074253;28;20044;-31
2023/04/21 01:06:29;;;;;;;3.67;2.80;;;18.50;50.90;;;;;;5061464;28;20494;-32
2023/04/21 01:08:56;;;;;;;3.67;3.10;;;;;;;;;;5053997;28;20409;-30
2023/04/21 01:11:23;;;;;;;3.45;3.15;;;;;;;;;;5053896;28;20049;-33
2023/04/21 01:13:52;;;;;;;3.63;2.97;;;18.40;50.80;;;;;;5053497;28;20044;-30
2023/04/21 01:16:20;;;;;;;3.90;2.90;;;;;;;;;;5053977;28;20483;-34
2023/04/21 01:18:47;;;;;;;4.82;3.40;;;;;;;;;;5062253;28;20091;-29
2023/04/21 01:21:14;;;;;;;4.30;3.30;;;18.50;77.30;;;;;;5073629;28;20050;-31
2023/04/21 01:23:42;;;;;;;4.10;3.10;;;18.40;50.80;;;;;;5073803;28;20052;-30
2023/04/21 01:26:09;;;;;;;3.42;2.97;;;;;;;;;;5073583;28;20051;-30
2023/04/21 01:28:36;;;;;;;3.80;3.10;;;;;;;;;;5073688;28;20054;-30
2023/04/21 01:31:03;;;;;;;3.88;2.90;;;;;;;;;;5073337;28;20131;-34
2023/04/21 01:33:30;;;;;;;3.30;3.00;;;18.00;77.10;;;;;;5069983;28;20048;-30
2023/04/21 01:35:58;;;;;;;4.63;3.10;;;;;;;;;;5054547;28;20053;-30
2023/04/21 01:38:25;;;;;;;3.85;3.20;;;;;;;;;;5073256;28;20056;-30
2023/04/21 01:40:54;;;;;;;3.80;2.75;;;;;;;;;;5073717;28;20048;-31
2023/04/21 01:43:21;;;;;;;3.80;3.05;;;;;;;;;;5072802;28;20052;-30
2023/04/21 01:45:48;;;;;;;4.55;3.30;;;;;;;;;;5073193;28;20401;-30
2023/04/21 01:48:15;;;;;;;4.95;3.15;;;;;;;;;;5061552;28;20071;-30
2023/04/21 01:50:42;;;;;;;3.38;3.03;;;;;;;;;;5067145;28;20413;-32
2023/04/21 01:53:10;;;;;;;3.50;3.10;;;;;;;;;;5072851;28;20397;-30
2023/04/21 01:55:36;;;;;;;4.25;3.20;;;18.40;65.80;;;;;;5073062;28;20072;-31
2023/04/21 01:58:04;;;;;;;3.70;3.17;;;18.30;50.70;;;;;;5073218;28;20055;-30
2023/04/21 02:00:31;;;;;;;4.85;3.40;;;18.20;77.70;;;;;;5072922;28;20048;-30
2023/04/21 02:02:58;;;;;;;3.92;3.00;;;;;;;;;;5072724;28;20138;-30
2023/04/21 02:05:25;;;;;;;4.88;3.53;;;17.00;77.00;;;;;;5060563;28;20471;-30
2023/04/21 02:07:52;;;;;;;4.30;3.40;;;;;;;;;;5052958;28;20084;-30
2023/04/21 02:10:19;;;;;;;3.75;3.10;;;17.90;54.50;;;;;;5052813;28;20045;-33
2023/04/21 02:12:46;;;;;;;4.40;3.40;;;;;;;;;;5052629;28;20055;-30
2023/04/21 02:15:14;;;;;;;4.25;3.35;;;18.20;50.70;;;;;;5052815;28;20059;-34
2023/04/21 02:17:41;;;;;;;4.20;3.22;;;;;;;;;;5052237;28;20053;-30
2023/04/21 02:20:09;;;;;;;3.85;3.10;;;;;;;;;;5056815;28;20045;-30
2023/04/21 02:22:36;;;;;;;3.33;3.03;;;;;;;;;;5052292;28;20049;-30
2023/04/21 02:25:03;;;;;;;4.15;3.50;;;17.00;62.70;;;;;;5052748;28;20049;-31
2023/04/21 02:27:30;;;;;;;3.95;3.10;;;18.60;61.40;;;;;;5065456;28;20048;-31
2023/04/21 02:29:57;;;;;;;4.07;3.22;;;;;;;;;;5072453;28;20382;-35
2023/04/21 02:32:25;;;;;;;4.82;3.40;;;;;;;;;;5072014;28;20517;-30
2023/04/21 02:34:52;;;;;;;4.55;3.40;;;17.60;63.40;;;;;;5071497;28;20428;-30
2023/04/21 02:37:19;;;;;;;3.55;3.00;;;;;;;;;;5072270;28;20047;-34
2023/04/21 02:39:46;;;;;;;5.20;3.58;;;16.80;76.60;;;;;;5071933;28;20055;-30
2023/04/21 02:42:13;;;;;;;4.40;3.28;;;;;;;;;;5072279;28;20450;-30
2023/04/21 02:44:41;;;;;;;4.60;3.33;;;16.90;70.00;;;;;;5072132;28;20481;-31
2023/04/21 02:47:08;;;;;;;3.97;3.35;;;;;;;;;;5071891;28;20041;-31
2023/04/21 02:49:40;;;;;;;3.92;3.33;;;;;;;;;;5071683;28;20052;-30
2023/04/21 02:52:07;;;;;;;4.50;3.22;;;;;;;;;;5071778;28;20053;-30
2023/04/21 02:54:34;;;;;;;4.65;3.50;;;;;;;;;;5072103;28;20055;-34
2023/04/21 02:57:01;;;;;;;4.18;3.08;;;17.50;77.50;;;;;;5071919;28;20051;-30
2023/04/21 02:59:28;;;;;;;6.18;3.78;;;;;;;;;;5072050;28;20051;-35
2023/04/21 03:01:55;;;;;;;4.75;3.20;;;17.80;77.80;;;;;;5071758;28;20048;-30
2023/04/21 03:04:24;;;;;;;6.55;3.75;;;;;;;;;;5053872;28;20059;-34
2023/04/21 03:06:52;;;;;;;5.22;3.83;;;;;;;;;;5052133;28;20052;-31
2023/04/21 03:09:19;;;;;;;4.60;3.83;;;17.90;56.00;;;;;;5051673;28;20132;-30
2023/04/21 03:11:46;;;;;;;4.85;3.47;;;;;;;;;;5052302;28;20052;-35
2023/04/21 03:14:13;;;;;;;4.90;3.33;;;;;;;;;;5051482;28;20057;-35
2023/04/21 03:16:40;;;;;;;5.30;3.65;;;;;;;;;;5058923;28;20044;-30
2023/04/21 03:19:07;;;;;;;4.80;3.30;;;18.90;78.00;;;;;;5072054;28;20045;-30
2023/04/21 03:21:36;;;;;;;4.05;3.38;;;;;;;;;;5070963;28;20044;-30
2023/04/21 03:24:05;;;;;;;5.13;3.20;;;16.60;71.50;;;;;;5071290;28;20402;-31
2023/04/21 03:26:32;;;;;;;4.68;3.78;;;18.90;78.40;;;;;;5071434;28;20049;-30
2023/04/21 03:28:59;;;;;;;4.05;3.42;;;17.70;54.50;;;;;;5071958;28;20063;-32
2023/04/21 03:31:26;;;;;;;5.28;3.33;;;18.40;78.60;;;;;;5071067;28;20409;-30
2023/04/21 03:33:53;;;;;;;4.45;3.50;;;;;;;;;;5071475;28;20131;-30
2023/04/21 03:36:19;;;;;;;4.60;3.65;;;17.70;64.30;;;;;;5071183;28;20043;-31
2023/04/21 03:38:46;;;;;;;4.45;3.45;;;17.80;77.40;;;;;;5071266;28;20136;-31
2023/04/21 03:41:14;;;;;;;5.32;3.85;;;17.80;50.60;;;;;;5071523;28;20057;-30
2023/04/21 03:43:41;;;;;;;4.85;3.35;;;;;;;;;;5071534;28;20063;-30
2023/04/21 03:46:08;;;;;;;4.25;3.15;;;;;;;;;;5070950;28;20055;-31
2023/04/21 03:48:35;;;;;;;4.60;3.45;;;;;;;;;;5071405;28;20063;-33
2023/04/21 03:51:02;;;;;;;4.68;3.35;;;;;;;;;;5071630;28;20044;-31
2023/04/21 03:53:29;;;;;;;5.53;3.80;;;;;;;;;;5071170;28;20048;-31
2023/04/21 03:55:56;;;;;;;4.55;3.63;;;17.80;77.80;;;;;;5071047;28;20053;-30
2023/04/21 03:58:24;;;;;;;4.68;3.95;;;;;;;;;;5071812;28;20429;-30
2023/04/21 04:00:52;;;;;;;4.88;3.50;;;;;;;;;;5070852;28;20405;-30
2023/04/21 04:03:18;;;;;;;4.60;3.70;;;17.90;77.50;;;;;;5071022;28;20493;-31
2023/04/21 04:05:46;;;;;;;5.88;3.60;;;;;;;;;;5071294;28;20052;-30
2023/04/21 04:08:12;;;;;;;5.35;3.83;;;18.20;70.40;;;;;;5070910;28;20055;-30
2023/04/21 04:10:39;;;;;;;4.80;3.55;;;16.90;77.10;;;;;;5071363;28;20048;-30
2023/04/21 04:13:06;;;;;;;4.45;3.40;;;;;;;;;;5064171;28;20048;-34
2023/04/21 04:15:34;;;;;;;5.38;3.70;;;17.70;50.50;;;;;;5051389;28;20053;-31
2023/04/21 04:18:01;;;;;;;4.00;3.60;;;18.30;77.70;;;;;;5051481;28;20409;-31
2023/04/21 04:20:28;;;;;;;4.20;3.70;;;;;;;;;;5068523;28;20086;-30
2023/04/21 04:22:55;;;;;;;4.50;3.53;;;17.60;66.70;;;;;;5070966;28;20138;-31
2023/04/21 04:25:22;;;;;;;4.55;3.75;;;18.40;78.30;;;;;;5070823;28;20062;-30
2023/04/21 04:27:49;;;;;;;5.40;4.00;;;;;;;;;;5057845;28;20041;-35
2023/04/21 04:30:16;;;;;;;6.97;4.35;;;18.00;67.70;;;;;;5058733;28;20053;-30
2023/04/21 04:32:44;;;;;;;4.60;3.50;;;17.80;50.60;;;;;;5061332;28;20043;-35
2023/04/21 04:35:11;;;;;;;5.03;3.50;;;;;;;;;;5062183;28;20065;-34
2023/04/21 04:37:38;;;;;;;4.55;3.60;;;17.90;77.70;;;;;;5060685;28;20073;-31
2023/04/21 04:40:08;;;;;;;4.50;3.55;;;17.70;50.50;;;;;;5063871;28;20040;-34
2023/04/21 04:42:36;;;;;;;4.20;3.40;;;17.50;57.80;;;;;;5061025;28;20668;-32
2023/04/21 04:45:03;;;;;;;4.78;3.53;;;17.60;77.50;;;;;;5061433;28;20555;-30
2023/04/21 04:47:30;;;;;;;3.92;3.00;;;17.80;74.10;;;;;;5062008;28;20049;-31
2023/04/21 04:49:58;;;;;;;4.10;3.33;;;17.90;50.60;;;;;;5064820;28;20135;-30
2023/04/21 04:52:25;;;;;;;5.68;3.53;;;17.80;77.20;;;;;;5063883;28;20401;-30
2023/04/21 04:54:52;;;;;;;4.63;3.53;;;;;;;;;;5065300;28;20079;-35
2023/04/21 04:57:18;;;;;;;4.95;3.70;;;17.10;76.80;;;;;;5063015;28;20041;-30
2023/04/21 04:59:45;;;;;;;4.95;3.63;;;;;;;;;;5063820;28;20045;-31
2023/04/21 05:02:12;;;;;;;4.55;3.40;;;18.50;69.10;;;;;;5064403;28;20048;-31
2023/04/21 05:04:39;;;;;;;5.03;3.20;;;19.50;77.90;;;;;;5065461;28;20048;-32
2023/04/21 05:07:08;;;;;;;4.93;3.13;;;;;;;;;;5058967;28;20041;-31
2023/04/21 05:09:34;;;;;;;3.78;3.20;;;18.80;58.40;;;;;;5054636;28;20052;-31
2023/04/21 05:12:02;;;;;;;4.82;3.22;;;;;;;;;;5059052;28;20053;-30
2023/04/21 05:14:29;;;;;;;4.35;3.22;;;;;;;;;;5061855;28;20498;-32
2023/04/21 05:16:56;;;;;;;3.72;3.13;;;17.50;70.40;;;;;;5073101;28;20055;-30
2023/04/21 05:19:22;;;;;;;5.63;3.03;;;18.70;60.90;;;;;;5069697;28;20397;-32
2023/04/21 05:21:49;;;;;;;4.03;2.95;;;18.80;70.60;;;;;;5064260;28;20048;-30
2023/04/21 05:24:22;;;;;;;5.13;2.97;;;18.80;49.90;;;;;;5071624;28;20508;-31
2023/04/21 05:26:49;;;;;;;6.15;3.28;;;;;;;;;;5072691;28;20051;-35
2023/04/21 05:29:16;;;;;;;5.38;3.25;;;;;;;;;;5060148;28;20048;-32
2023/04/21 05:31:43;;;;;;;3.75;2.92;;;;;;;;;;5052131;28;20051;-35
2023/04/21 05:34:09;;;;;;;3.22;2.70;;;19.00;69.90;;;;;;5051659;28;20052;-30
2023/04/21 05:36:36;;;;;;;3.45;2.80;;;18.60;56.20;;;;;;5053367;28;20049;-30
2023/04/21 05:39:03;;;;;;;3.30;2.83;;;;;;;;;;5055761;28;20064;-33
2023/04/21 05:41:31;;;;;;;4.28;2.97;;;19.20;58.40;;;;;;5052599;28;20049;-31
2023/04/21 05:43:58;;;;;;;3.30;2.83;;;19.40;69.60;;;;;;5051090;28;20131;-30
2023/04/21 05:46:25;;;;;;;4.88;2.90;;;19.00;52.50;;;;;;5063037;28;20049;-33
2023/04/21 05:48:52;;;;;;;3.60;2.70;;;19.10;68.80;;;;;;5061892;28;20473;-30
2023/04/21 05:51:18;;;;;;;3.60;2.80;;;19.30;69.20;;;;;;5053287;28;20057;-30
2023/04/21 05:53:45;;;;;;;3.80;3.03;;;;;;;;;;5056592;28;20059;-35
2023/04/21 05:56:12;;;;;;;3.80;2.97;;;18.50;68.30;;;;;;5072485;28;20054;-30
2023/04/21 05:58:40;;;;;;;3.90;2.95;;;19.70;69.20;;;;;;5072945;28;20052;-30
2023/04/21 06:01:07;;;;;;;3.78;3.00;;;19.50;68.70;;;;;;5073063;28;20057;-30
2023/04/21 06:03:34;;;;;;;4.47;2.88;;;19.80;51.50;;;;;;5071515;28;20052;-32
2023/04/21 06:06:02;;;;;;;3.78;3.05;;;18.20;54.70;;;;;;5067321;28;20045;-30
2023/04/21 06:08:29;;;;;;;4.18;2.75;;;20.40;67.90;;;;;;5062011;28;20036;-30
2023/04/21 06:10:56;;;;;;;3.30;2.85;;;20.30;49.40;;;;;;5059548;28;20152;-34
2023/04/21 06:13:23;;;;;;;3.70;2.88;;;19.40;68.70;;;;;;5072195;28;20520;-30
2023/04/21 06:15:51;;;;;;;3.45;2.67;;;19.50;68.40;;;;;;5072612;28;20048;-30
2023/04/21 06:18:18;;;;;;;4.45;3.03;;;;;;;;;;5073054;28;20049;-30
2023/04/21 06:20:50;;;;;;;4.57;2.80;;;18.60;63.30;;;;;;5065947;28;20405;-33
2023/04/21 06:23:16;;;;;;;3.58;3.00;;;19.40;61.10;;;;;;5052283;28;20052;-33
2023/04/21 06:25:43;;;;;;;3.80;2.95;;;;;;;;;;5052774;28;20137;-34
2023/04/21 06:28:10;;;;;;;3.58;2.60;;;;;;;;;;5052484;28;20044;-37
2023/04/21 06:30:37;;;;;;;3.85;2.83;;;20.50;69.20;;;;;;5052842;28;20045;-32
2023/04/21 06:33:05;;;;;;;2.80;2.50;;;20.00;68.60;;;;;;5051726;28;20600;-31
2023/04/21 06:35:32;;;;;;;4.47;2.70;;;;;;;;;;5051914;28;20049;-36
2023/04/21 06:37:59;;;;;;;3.53;2.60;;;19.80;69.30;;;;;;5063566;28;20037;-32
2023/04/21 06:40:26;;;;;;;3.55;2.67;;;20.40;66.20;;;;;;5067747;28;20375;-32
2023/04/21 06:42:53;;;;;;;4.13;2.75;;;;;;;;;;5062330;28;20051;-36
2023/04/21 06:45:20;;;;;;;2.80;2.45;;;19.20;68.10;;;;;;5072252;28;20052;-32
2023/04/21 06:47:46;;;;;;;3.65;2.70;;;19.60;59.80;;;;;;5072205;28;20055;-32
2023/04/21 06:50:15;;;;;;;3.75;2.60;;;19.50;52.60;;;;;;5071232;28;20048;-35
2023/04/21 06:52:41;;;;;;;3.25;2.40;;;19.50;67.90;;;;;;5065251;28;20516;-32
2023/04/21 06:55:08;;;;;;;3.92;2.70;;;19.50;69.10;;;;;;5061657;28;20048;-32
2023/04/21 06:57:36;;;;;;;3.35;2.80;;;;;;;;;;5071083;28;20200;-36
2023/04/21 07:00:04;;;;;;;3.45;2.60;;;19.20;51.90;;;;;;5067207;28;20051;-31
2023/04/21 07:02:31;;;;;;;4.22;2.50;;;19.60;69.30;;;;;;5051430;28;20132;-31
2023/04/21 07:04:58;;;;;;;3.60;2.92;;;;;;;;;;5054820;28;20055;-35
2023/04/21 07:07:26;;;;;;;3.10;2.75;;;19.40;48.70;;;;;;5061887;28;20047;-36
2023/04/21 07:09:52;;;;;;;5.47;3.28;;;20.50;69.30;;;;;;5071585;28;20071;-31
2023/04/21 07:12:19;;;;;;;3.83;2.70;;;19.10;68.10;;;;;;5065763;28;20045;-33
2023/04/21 07:14:46;;;;;;;3.45;2.78;;;19.40;59.20;;;;;;5051268;28;20449;-33
2023/04/21 07:17:12;;;;;;;3.45;2.75;;;19.30;65.60;;;;;;5051621;28;20049;-32
2023/04/21 07:19:39;;;;;;;3.13;2.60;;;19.30;68.20;;;;;;5051426;28;20049;-32
2023/04/21 07:22:07;;;;;;;3.97;2.85;;;;;;;;;;5051845;28;20110;-33
2023/04/21 07:24:36;;;;;;;3.35;2.47;;;19.50;69.20;;;;;;5051802;28;20049;-31
2023/04/21 07:27:02;;;;;;;3.50;2.70;;;19.50;68.50;;;;;;5051511;28;20452;-31
2023/04/21 07:29:29;;;;;;;2.97;2.53;;;19.30;68.50;;;;;;5051472;28;20051;-33
2023/04/21 07:31:57;;;;;;;3.75;2.50;;;19.30;69.00;;;;;;5050207;28;20048;-32
2023/04/21 07:34:24;;;;;;;3.15;2.75;;;20.00;69.50;;;;;;5054514;28;20498;-31
2023/04/21 07:36:51;;;;;;;3.58;2.80;;;;;;;;;;5058051;28;20040;-35
2023/04/21 07:39:17;;;;;;;2.95;2.60;;;18.80;68.20;;;;;;5051554;28;20128;-31
2023/04/21 07:41:45;;;;;;;4.13;2.40;;;19.90;68.90;;;;;;5050996;28;20479;-31
2023/04/21 07:44:12;;;;;;;3.97;2.78;;;19.50;52.10;;;;;;5051347;28;20045;-31
2023/04/21 07:46:39;;;;;;;3.42;2.72;;;;;;;;;;5063524;28;20055;-34
2023/04/21 07:49:06;;;;;;;2.65;2.40;;;19.40;69.10;;;;;;5071365;28;20056;-32
2023/04/21 07:51:32;;;;;;;3.50;2.63;;;20.00;68.60;;;;;;5070636;28;20048;-31
2023/04/21 07:53:59;;;;;;;3.53;2.65;;;19.10;57.60;;;;;;5071428;28;20052;-32
2023/04/21 07:56:26;;;;;;;3.42;2.60;;;19.10;52.90;;;;;;5071443;28;20131;-31
2023/04/21 07:58:54;;;;;;;4.65;2.60;;;19.30;56.10;;;;;;5071056;28;20051;-31
2023/04/21 08:01:22;;;;;;;3.17;2.60;;;;;;;;;;5070978;28;20446;-36
2023/04/21 08:03:49;;;;;;;3.65;2.53;;;20.50;69.00;;;;;;5066304;28;20048;-31
2023/04/21 08:06:16;;;;;;;2.90;2.50;;;;;;;;;;5071589;28;20054;-31
2023/04/21 08:08:43;;;;;;;5.00;2.63;;;;;;;;;;5073428;28;20128;-33
2023/04/21 08:11:10;;;;;;;3.63;2.95;;;19.60;65.70;;;;;;5073841;28;20048;-32
2023/04/21 08:13:36;;;;;;;4.18;2.80;;;20.30;68.90;;;;;;5073888;28;20127;-31
2023/04/21 08:16:05;;;;;;;6.80;2.88;;;19.20;49.10;;;;;;5075077;28;20049;-31
2023/04/21 08:18:32;;;;;;;3.15;2.45;;;;;;;;;;5074962;28;20489;-34
2023/04/21 08:20:58;;;;;;;3.78;2.63;;;19.80;69.50;;;;;;5075102;28;20048;-31
2023/04/21 08:23:25;;;;;;;3.40;2.65;;;19.30;63.30;;;;;;5075033;28;20102;-31
2023/04/21 08:25:52;;;;;;;3.13;2.80;;;;;;;;;;5074522;28;20140;-33
2023/04/21 08:28:19;;;;;;;3.63;2.75;;;19.20;69.30;;;;;;5063064;28;20051;-31
2023/04/21 08:30:46;;;;;;;3.20;2.50;;;;;;;;;;5069697;28;20110;-36
2023/04/21 08:33:14;;;;;;;3.50;2.60;;;20.20;68.60;;;;;;5074337;28;20067;-31
2023/04/21 08:35:41;;;;;;;3.10;2.55;;;18.40;67.70;;;;;;5073843;28;20059;-31
2023/04/21 08:38:08;;;;;;;3.78;2.72;;;19.50;68.60;;;;;;5074043;28;20045;-32
2023/04/21 08:40:36;;;;;;;4.78;2.65;;;19.70;59.80;;;;;;5074685;28;20044;-31
2023/04/21 08:43:04;;;;;;;2.55;2.22;;;19.50;48.80;;;;;;5067362;28;20595;-32
2023/04/21 08:45:31;;;;;;;3.55;2.42;;;19.70;62.10;;;;;;5070610;28;20091;-31
2023/04/21 08:47:57;;;;;;;5.43;2.60;;;19.70;69.00;;;;;;5074262;28;20353;-31
2023/04/21 08:50:27;;;;;;;3.55;2.80;;;19.20;68.10;;;;;;5074210;28;20058;-31
2023/04/21 08:52:54;;;;;;;3.25;2.85;;;19.30;68.20;;;;;;5073980;28;20048;-31
2023/04/21 08:55:21;;;;;;;4.05;2.92;;;;;;;;;;5073628;28;20493;-35
2023/04/21 08:57:48;;;;;;;3.25;2.40;;;20.00;68.10;;;;;;5073381;28;20049;-31
2023/04/21 09:00:14;;;;;;;3.17;2.67;;;20.20;68.00;;;;;;5074087;28;20045;-31
2023/04/21 09:02:53;;;;;;;3.25;2.53;;;18.50;60.40;;;;;;5073698;28;20044;-31
2023/04/21 09:05:22;;;;;;;4.28;2.60;;;19.60;58.40;;;;;;5074048;28;20416;-32
2023/04/21 09:07:50;;;;;;;3.80;2.60;;;19.80;48.20;;;;;;5073644;28;20045;-36
2023/04/21 09:10:22;;;;;;;2.78;2.45;;;19.30;68.20;;;;;;5063909;28;20052;-31
2023/04/21 09:12:50;;;;;;;3.13;2.50;;;19.50;67.80;;;;;;5074034;28;20052;-31
2023/04/21 09:15:16;;;;;;;3.13;2.55;;;19.10;67.50;;;;;;5072754;28;20053;-38
2023/04/21 09:17:44;;;;;;;3.17;2.63;;;19.90;67.40;;;;;;5074012;28;20641;-40
2023/04/21 09:20:15;;;;;;;3.05;2.45;;;20.50;60.60;;;;;;5072815;28;20059;-36
2023/04/21 09:22:42;;;;;;;3.80;2.83;;;19.30;64.30;;;;;;5071731;28;20052;-36
2023/04/21 09:25:10;;;;;;;3.25;2.47;;;19.80;55.50;;;;;;5064536;28;20051;-36
2023/04/21 09:27:37;;;;;;;3.35;2.20;;;20.40;67.80;;;;;;5053281;28;20128;-38
2023/04/21 09:30:05;;;;;;;3.50;2.50;;;;;;;;;;5053576;28;20540;-35
2023/04/21 09:32:36;;;;;;;2.63;2.17;;;20.10;47.60;;;;;;5053424;28;20118;-38
2023/04/21 09:35:03;;;;;;;2.88;2.40;;;21.30;67.60;;;;;;5053509;28;20049;-39
2023/04/21 09:37:32;;;;;;;3.00;2.20;;;20.10;47.60;;;;;;5058134;28;20049;-39
2023/04/21 09:39:59;;;;;;;3.10;2.53;;;19.70;57.50;;;;;;5052977;28;20494;-37
2023/04/21 09:42:30;;;;;;;4.13;2.42;;;19.30;67.30;;;;;;5052913;28;20247;-39
2023/04/21 09:44:57;;;;;;;3.70;2.55;;;;;;;;;;5052351;28;20059;-39
2023/04/21 09:47:24;;;;;;;5.20;2.40;;;20.40;60.00;;;;;;5067408;28;20055;-37
2023/04/21 09:49:51;;;;;;;3.55;2.47;;;20.90;50.80;;;;;;5072225;28;20075;-36
2023/04/21 09:52:19;;;;;;;3.63;2.38;;;;;;;;;;5073113;28;20052;-41
2023/04/21 09:54:49;;;;;;;3.22;2.50;;;20.60;47.50;;;;;;5065926;28;20041;-36
2023/04/21 09:57:19;;;;;;;2.88;2.22;;;19.80;67.30;;;;;;5061914;28;20057;-39
2023/04/21 09:59:47;;;;;;;3.42;2.80;;;20.70;67.30;;;;;;5052838;28;20452;-38
2023/04/21 10:02:14;;;;;;;4.50;2.63;;;21.00;67.00;;;;;;5051742;28;20095;-38
2023/04/21 10:04:42;;;;;;;2.65;2.20;;;20.70;57.60;;;;;;5053203;28;20466;-36
2023/04/21 10:07:09;;;;;;;3.30;2.55;;;20.90;66.70;;;;;;5053053;28;20055;-40
2023/04/21 10:09:38;;;;;;;3.15;2.30;;;20.30;66.90;;;;;;5052793;28;20485;-39
2023/04/21 10:12:05;;;;;;;3.40;2.45;;;20.20;50.80;;;;;;5052817;28;20080;-37
2023/04/21 10:14:32;;;;;;;2.80;2.30;;;20.60;67.40;;;;;;5051984;28;20088;-38
2023/04/21 10:17:05;;;;;;;4.20;2.30;;;20.50;47.10;;;;;;5052907;28;20139;-39
2023/04/21 10:19:35;;;;;;;4.25;2.75;;;20.70;61.10;;;;;;5053047;28;20048;-35
2023/04/21 10:22:02;;;;;;;3.03;2.50;;;;;;;;;;5052397;28;20045;-35
2023/04/21 10:24:29;;;;;;;3.28;2.42;;;;;;;;;;5052713;28;20137;-35
2023/04/21 10:26:58;;;;;;;3.83;2.50;;;20.60;62.30;;;;;;5052275;28;20049;-38
2023/04/21 10:29:28;;;;;;;3.72;2.65;;;20.20;66.50;;;;;;5052625;28;20048;-39
2023/04/21 10:31:55;;;;;;;2.53;2.20;;;20.20;66.10;;;;;;5051461;28;20497;-36
2023/04/21 10:34:29;;;;;;;2.70;2.42;;;20.60;47.00;;;;;;5052420;28;20072;-36
2023/04/21 10:37:22;;;;;;;2.53;2.13;;;20.60;46.90;;;;;;5069359;28;20056;-36
2023/04/21 10:39:53;;;;;;;4.40;2.45;;;20.90;66.50;;;;;;5072311;28;20048;-40
2023/04/21 10:42:30;;;;;;;2.72;2.17;;;20.60;46.90;;;;;;5071966;28;20048;-35
2023/04/21 10:45:12;;;;;;;2.78;2.10;;;18.90;46.00;;;;;;5067394;28;20167;-38
2023/04/21 10:47:41;;;;;;;3.97;2.22;;;20.40;66.30;;;;;;5065964;28;20076;-40
2023/04/21 10:50:14;;;;;;;3.22;2.40;;;20.60;47.00;;;;;;5063013;28;20101;-36
2023/04/21 10:52:44;;;;;;;4.72;2.50;;;20.50;63.20;;;;;;5071379;28;20086;-37
2023/04/21 10:55:12;;;;;;;3.22;2.38;;;;;;;;;;5072020;28;20055;-36
2023/04/21 10:57:39;;;;;;;2.20;2.00;;;;;;;;;;5071351;28;20048;-35
2023/04/21 11:00:07;;;;;;;2.63;2.28;;;20.50;54.00;;;;;;5071550;28;20046;-40
2023/04/21 11:02:35;;;;;;;3.03;2.35;;;20.30;66.70;;;;;;5071622;28;20048;-39
2023/04/21 11:05:02;;;;;;;3.85;2.08;;;;;;;;;;5071067;28;20048;-37
2023/04/21 11:07:31;;;;;;;4.13;2.20;;;20.40;52.40;;;;;;5061708;28;20474;-38
2023/04/21 11:09:59;;;;;;;4.45;2.30;;;20.70;46.90;;;;;;5051761;28;20124;-38
2023/04/21 11:12:27;;;;;;;2.58;2.10;;;21.70;67.00;;;;;;5058780;28;20051;-38
2023/04/21 11:14:54;;;;;;;4.93;2.30;;;21.20;60.40;;;;;;5056739;28;20052;-36
2023/04/21 11:17:22;;;;;;;3.05;2.20;;;;;;;;;;5870846;22;20053;-32
2023/04/21 11:19:49;;;;;;;3.20;2.10;;;;;;;;;;5044829;28;20057;-32
2023/04/21 11:22:16;;;;;;;2.70;2.20;;;20.80;46.80;;;;;;5031292;28;20128;-32
2023/04/21 11:24:45;;;;;;;4.28;2.60;;;20.80;46.70;;;;;;5030086;28;20050;-31
2023/04/21 11:27:13;;;;;;;2.40;2.03;;;20.50;66.20;;;;;;5034557;28;20051;-32
2023/04/21 11:29:40;;;;;;;2.80;2.20;;;21.50;58.20;;;;;;5049609;28;20037;-32
2023/04/21 11:32:07;;;;;;;2.83;2.13;;;20.40;49.00;;;;;;5043379;28;20045;-32
2023/04/21 11:34:35;;;;;;;3.20;2.33;;;;;;;;;;5049019;28;20041;-32
2023/04/21 11:37:02;;;;;;;3.17;1.98;;;;;;;;;;5048700;28;20041;-31
2023/04/21 11:39:29;;;;;;;3.17;2.10;;;21.40;66.60;;;;;;5051141;28;20131;-32
2023/04/21 11:41:57;;;;;;;3.05;2.22;;;20.90;46.80;;;;;;5050651;28;20045;-32
2023/04/21 11:44:34;;;;;;;3.28;2.30;;;20.80;56.80;;;;;;5054238;28;20424;-32
2023/04/21 11:47:00;;;;;;;3.80;2.28;;;21.20;64.80;;;;;;5056651;28;20041;-32
2023/04/21 11:49:29;;;;;;;2.58;2.20;;;;;;;;;;5043883;28;20132;-32
2023/04/21 11:51:55;;;;;;;3.08;2.33;;;21.60;67.30;;;;;;5055163;28;20048;-32
2023/04/21 11:54:23;;;;;;;2.40;2.10;;;;;;;;;;5055189;28;20114;-32
2023/04/21 11:56:50;;;;;;;3.13;2.20;;;;;;;;;;5055373;28;20048;-32
2023/04/21 11:59:21;;;;;;;4.25;2.30;;;21.20;66.20;;;;;;5054833;28;20106;-33
2023/04/21 12:01:49;;;;;;;2.83;2.17;;;21.30;62.10;;;;;;5054977;28;20052;-32
2023/04/21 12:04:16;;;;;;;2.88;2.00;;;21.50;67.30;;;;;;5054691;28;20055;-32
2023/04/21 12:06:43;;;;;;;3.97;2.67;;;19.90;63.10;;;;;;5053577;28;20135;-32
2023/04/21 12:09:16;;;;;;;2.95;2.08;;;20.60;66.40;;;;;;5054384;28;20041;-32
2023/04/21 12:11:43;;;;;;;2.47;1.98;;;;;;;;;;5055172;28;20053;-31
2023/04/21 12:14:10;;;;;;;4.25;2.25;;;21.50;65.80;;;;;;5054065;28;20049;-33
2023/04/21 12:16:38;;;;;;;2.95;2.40;;;20.40;66.10;;;;;;5055145;28;20493;-32
2023/04/21 12:19:04;;;;;;;2.58;2.22;;;21.30;67.50;;;;;;5054656;28;20052;-32
2023/04/21 12:21:31;;;;;;;2.97;2.30;;;;;;;;;;5054574;28;20049;-32
2023/04/21 12:23:58;;;;;;;3.92;2.20;;;21.00;67.30;;;;;;5045858;28;20056;-32
2023/04/21 12:26:25;;;;;;;2.30;2.10;;;20.30;66.50;;;;;;5047311;28;20056;-32
2023/04/21 12:28:51;;;;;;;3.63;2.47;;;20.70;56.50;;;;;;5054609;28;20051;-32
2023/04/21 12:31:18;;;;;;;4.50;2.47;;;21.20;66.80;;;;;;5054983;28;20071;-32
2023/04/21 12:33:46;;;;;;;3.10;2.28;;;20.40;66.50;;;;;;5053072;28;20037;-32
2023/04/21 12:36:14;;;;;;;3.25;2.25;;;;;;;;;;5054120;28;20045;-31
2023/04/21 12:38:41;;;;;;;2.65;2.05;;;;;;;;;;5053340;28;20127;-32
2023/04/21 12:41:08;;;;;;;2.72;2.13;;;21.50;67.60;;;;;;5053154;28;20049;-32
2023/04/21 12:43:35;;;;;;;2.35;2.10;;;20.80;66.80;;;;;;5053455;28;20505;-32
2023/04/21 12:46:02;;;;;;;3.50;2.25;;;;;;;;;;5057311;28;20051;-31
2023/04/21 12:48:29;;;;;;;3.60;2.38;;;21.00;54.10;;;;;;5045462;28;20057;-32
2023/04/21 12:50:57;;;;;;;3.83;2.10;;;20.40;66.30;;;;;;5054521;28;20045;-32
2023/04/21 12:53:23;;;;;;;2.92;2.40;;;19.90;66.30;;;;;;5044376;28;20045;-32
2023/04/21 12:55:50;;;;;;;3.00;2.05;;;20.20;51.70;;;;;;5051417;28;20568;-32
2023/04/21 12:58:17;;;;;;;6.68;2.22;;;20.90;67.60;;;;;;5053391;28;20049;-32
2023/04/21 13:00:43;;;;;;;3.05;2.10;;;19.60;66.10;;;;;;5053166;28;20382;-32
2023/04/21 13:03:10;;;;;;;3.83;2.08;;;;;;;;;;5053970;28;20051;-32
2023/04/21 13:05:37;;;;;;;3.17;2.05;;;20.70;67.40;;;;;;5053882;28;20095;-32
2023/04/21 13:08:05;;;;;;;2.97;2.40;;;20.50;66.60;;;;;;5052906;28;20684;-32
2023/04/21 13:10:32;;;;;;;2.90;2.40;;;20.90;66.70;;;;;;5053955;28;20049;-32
2023/04/21 13:12:59;;;;;;;4.13;2.20;;;19.90;54.70;;;;;;5053427;28;20049;-32
2023/04/21 13:15:25;;;;;;;2.60;1.88;;;20.70;67.70;;;;;;5054007;28;20045;-32
2023/04/21 13:17:53;;;;;;;2.70;1.95;;;20.40;66.70;;;;;;5053331;28;20047;-32
2023/04/21 13:20:20;;;;;;;2.47;2.15;;;19.40;47.10;;;;;;5053615;28;20128;-32
2023/04/21 13:22:46;;;;;;;3.03;2.00;;;20.70;67.70;;;;;;5053543;28;20049;-32